createdAt,value
2022-09-11T00:01:09.393Z,14.07
2022-09-11T00:03:36.481Z,17.85
2022-09-11T00:06:06.345Z,11.85
2022-09-11T00:08:34.438Z,12.48
2022-09-11T00:11:09.999Z,11.18
2022-09-11T00:13:38.125Z,16.42
2022-09-11T00:16:07.432Z,9.80
2022-09-11T00:18:37.710Z,12.15
2022-09-11T00:21:07.921Z,15.13
2022-09-11T00:23:34.561Z,12.50
2022-09-11T00:26:02.696Z,9.68
2022-09-11T00:28:30.297Z,10.75
2022-09-11T00:31:02.330Z,11.93
2022-09-11T00:33:29.942Z,11.15
2022-09-11T00:36:03.778Z,10.57
2022-09-11T00:38:33.325Z,9.55
2022-09-11T00:41:02.442Z,14.20
2022-09-11T00:43:31.042Z,13.65
2022-09-11T00:46:05.661Z,10.60
2022-09-11T00:48:35.732Z,12.40
2022-09-11T00:51:04.422Z,12.68
2022-09-11T00:53:34.216Z,15.65
2022-09-11T00:56:05.665Z,13.43
2022-09-11T00:58:37.853Z,13.07
2022-09-11T01:01:04.763Z,12.48
2022-09-11T01:03:32.163Z,10.90
2022-09-11T01:05:59.497Z,9.05
2022-09-11T01:08:26.268Z,12.90
2022-09-11T01:11:18.377Z,9.80
2022-09-11T01:14:10.845Z,14.15
2022-09-11T01:17:10.155Z,11.50
2022-09-11T01:19:42.566Z,12.20
2022-09-11T01:22:43.938Z,14.80
2022-09-11T01:25:29.101Z,12.57
2022-09-11T01:27:58.754Z,14.25
2022-09-11T01:30:40.853Z,15.05
2022-09-11T01:33:22.928Z,12.35
2022-09-11T01:35:59.536Z,13.05
2022-09-11T01:38:36.323Z,10.95
2022-09-11T01:41:14.133Z,13.32
2022-09-11T01:43:51.852Z,12.15
2022-09-11T01:46:24.712Z,13.40
2022-09-11T01:48:58.677Z,12.30
2022-09-11T01:51:29.498Z,13.68
2022-09-11T01:54:00.100Z,14.07
2022-09-11T01:56:32.120Z,12.90
2022-09-11T01:59:04.240Z,14.63
2022-09-11T02:01:35.133Z,12.35
2022-09-11T02:04:24.528Z,16.37
2022-09-11T02:07:02.202Z,15.68
2022-09-11T02:09:34.090Z,15.27
2022-09-11T02:12:06.865Z,17.27
2022-09-11T02:14:41.979Z,15.13
2022-09-11T02:17:26.328Z,15.77
2022-09-11T02:19:56.813Z,15.13
2022-09-11T02:22:25.027Z,16.23
2022-09-11T02:24:52.168Z,13.85
2022-09-11T02:27:23.514Z,14.50
2022-09-11T02:29:51.045Z,15.27
2022-09-11T02:32:18.805Z,15.25
2022-09-11T02:34:48.425Z,12.93
2022-09-11T02:37:21.217Z,14.82
2022-09-11T02:40:03.110Z,19.48
2022-09-11T02:42:35.884Z,16.27
2022-09-11T02:45:41.229Z,15.65
2022-09-11T02:48:45.444Z,14.43
2022-09-11T02:51:23.772Z,15.40
2022-09-11T02:53:56.635Z,19.98
2022-09-11T02:56:39.762Z,17.48
2022-09-11T02:59:19.053Z,16.80
2022-09-11T03:01:51.870Z,19.55
2022-09-11T03:04:20.304Z,29.05
2022-09-11T03:06:48.510Z,27.05
2022-09-11T03:09:15.849Z,31.17
2022-09-11T03:11:43.197Z,32.70
2022-09-11T03:14:10.352Z,23.65
2022-09-11T03:16:37.165Z,24.90
2022-09-11T03:19:05.169Z,22.05
2022-09-11T03:21:32.763Z,23.52
2022-09-11T03:23:59.433Z,27.23
2022-09-11T03:26:26.072Z,36.65
2022-09-11T03:28:53.654Z,71.72
2022-09-11T03:31:20.904Z,40.65
2022-09-11T03:33:47.583Z,59.17
2022-09-11T03:36:14.341Z,29.55
2022-09-11T03:38:40.980Z,23.67
2022-09-11T03:41:09.248Z,25.65
2022-09-11T03:43:35.854Z,21.80
2022-09-11T03:46:03.075Z,30.75
2022-09-11T03:48:29.806Z,40.05
2022-09-11T03:50:56.804Z,77.25
2022-09-11T03:53:23.526Z,30.15
2022-09-11T03:55:50.161Z,42.70
2022-09-11T03:58:19.353Z,42.50
2022-09-11T04:00:46.560Z,55.33
2022-09-11T04:03:17.710Z,40.38
2022-09-11T04:05:59.967Z,29.23
2022-09-11T04:08:26.763Z,29.75
2022-09-11T04:10:57.924Z,61.28
2022-09-11T04:13:28.486Z,100.00
2022-09-11T04:15:59.296Z,88.60
2022-09-11T04:18:26.130Z,43.63
2022-09-11T04:20:52.750Z,89.25
2022-09-11T04:23:19.398Z,54.42
2022-09-11T04:25:46.012Z,70.00
2022-09-11T04:28:12.734Z,49.80
2022-09-11T04:30:39.443Z,63.22
2022-09-11T04:33:06.461Z,39.13
2022-09-11T04:35:36.548Z,20.95
2022-09-11T04:38:03.181Z,18.20
2022-09-11T04:40:29.832Z,21.92
2022-09-11T04:42:56.940Z,22.98
2022-09-11T04:45:23.868Z,22.98
2022-09-11T04:47:52.910Z,58.63
2022-09-11T04:50:19.958Z,128.85
2022-09-11T04:52:46.596Z,95.03
2022-09-11T04:55:13.249Z,64.78
2022-09-11T04:57:39.881Z,133.07
2022-09-11T05:00:07.367Z,191.52
2022-09-11T05:02:34.052Z,106.25
2022-09-11T05:05:00.700Z,39.95
2022-09-11T05:07:27.451Z,91.53
2022-09-11T05:09:54.427Z,91.22
2022-09-11T05:12:21.885Z,108.90
2022-09-11T05:14:48.522Z,121.63
2022-09-11T05:17:15.127Z,90.78
2022-09-11T05:19:41.754Z,169.93
2022-09-11T05:22:08.844Z,302.13
2022-09-11T05:24:35.622Z,154.90
2022-09-11T05:27:02.340Z,55.00
2022-09-11T05:29:32.509Z,130.60
2022-09-11T05:31:59.486Z,112.38
2022-09-11T05:34:28.702Z,180.38
2022-09-11T05:36:59.657Z,183.15
2022-09-11T05:39:26.321Z,86.88
2022-09-11T05:41:55.228Z,108.25
2022-09-11T05:44:21.858Z,51.78
2022-09-11T05:46:48.731Z,130.77
2022-09-11T05:49:15.910Z,178.00
2022-09-11T05:51:42.565Z,158.20
2022-09-11T05:54:09.340Z,138.55
2022-09-11T05:56:36.518Z,68.85
2022-09-11T05:59:03.399Z,88.20
2022-09-11T06:01:31.109Z,39.63
2022-09-11T06:03:57.944Z,17.52
2022-09-11T06:06:25.390Z,38.15
2022-09-11T06:08:53.056Z,15.00
2022-09-11T06:11:21.341Z,16.50
2022-09-11T06:13:49.004Z,15.93
2022-09-11T06:16:21.159Z,20.95
2022-09-11T06:18:49.469Z,29.70
2022-09-11T06:21:19.895Z,29.60
2022-09-11T06:23:47.941Z,28.58
2022-09-11T06:26:16.566Z,24.77
2022-09-11T06:28:43.367Z,33.15
2022-09-11T06:31:15.322Z,35.30
2022-09-11T06:33:43.079Z,19.52
2022-09-11T06:36:12.436Z,21.02
2022-09-11T06:38:39.207Z,16.02
2022-09-11T06:41:12.656Z,17.40
2022-09-11T06:43:39.802Z,16.98
2022-09-11T06:46:12.794Z,19.23
2022-09-11T06:48:44.144Z,21.67
2022-09-11T06:51:13.356Z,21.33
2022-09-11T06:53:43.497Z,18.52
2022-09-11T06:56:15.375Z,25.88
2022-09-11T06:58:43.816Z,18.17
2022-09-11T07:01:20.942Z,18.55
2022-09-11T07:03:50.164Z,23.88
2022-09-11T07:06:22.785Z,22.85
2022-09-11T07:08:55.840Z,20.77
2022-09-11T07:11:22.838Z,22.92
2022-09-11T07:13:49.580Z,19.23
2022-09-11T07:16:16.913Z,17.35
2022-09-11T07:18:45.841Z,19.40
2022-09-11T07:21:16.301Z,17.77
2022-09-11T07:23:46.570Z,17.83
2022-09-11T07:26:13.646Z,16.98
2022-09-11T07:28:40.709Z,17.02
2022-09-11T07:31:10.849Z,22.73
2022-09-11T07:33:45.909Z,18.17
2022-09-11T07:36:14.412Z,17.35
2022-09-11T07:38:42.710Z,15.95
2022-09-11T07:41:10.664Z,18.73
2022-09-11T07:43:38.437Z,20.70
2022-09-11T07:46:06.390Z,20.13
2022-09-11T07:48:33.198Z,19.35
2022-09-11T07:51:04.964Z,19.73
2022-09-11T07:53:39.951Z,19.30
2022-09-11T07:56:18.506Z,20.60
2022-09-11T07:58:45.450Z,17.08
2022-09-11T08:01:17.479Z,20.60
2022-09-11T08:03:44.935Z,19.63
2022-09-11T08:06:20.145Z,18.27
2022-09-11T08:08:53.473Z,14.75
2022-09-11T08:11:20.802Z,13.95
2022-09-11T08:13:50.891Z,11.55
2022-09-11T08:16:19.434Z,14.73
2022-09-11T08:18:46.759Z,9.80
2022-09-11T08:21:14.303Z,12.63
2022-09-11T08:23:43.277Z,9.63
2022-09-11T08:26:14.162Z,11.82
2022-09-11T08:28:45.276Z,11.32
2022-09-11T08:31:13.393Z,12.02
2022-09-11T08:33:40.486Z,10.23
2022-09-11T08:36:09.744Z,10.23
2022-09-11T08:38:37.684Z,10.13
2022-09-11T08:41:25.122Z,9.00
2022-09-11T08:43:56.668Z,12.60
2022-09-11T08:49:08.048Z,11.18
2022-09-11T08:51:36.142Z,9.13
2022-09-11T08:54:03.776Z,8.13
2022-09-11T08:56:31.299Z,10.73
2022-09-11T08:59:09.873Z,6.75
2022-09-11T09:02:04.420Z,11.55
2022-09-11T09:04:58.746Z,7.88
2022-09-11T09:07:32.048Z,6.40
2022-09-11T09:10:28.142Z,7.35
2022-09-11T09:13:19.474Z,6.18
2022-09-11T09:16:36.962Z,15.07
2022-09-11T09:19:21.844Z,6.93
2022-09-11T09:22:16.446Z,15.27
2022-09-11T09:24:48.517Z,8.10
2022-09-11T09:27:19.610Z,7.80
2022-09-11T09:29:51.791Z,5.57
2022-09-11T09:32:29.528Z,7.18
2022-09-11T09:35:00.727Z,6.63
2022-09-11T09:37:27.937Z,6.57
2022-09-11T09:39:55.860Z,8.27
2022-09-11T09:42:49.737Z,3.90
2022-09-11T09:45:28.341Z,3.95
2022-09-11T09:47:55.004Z,5.63
2022-09-11T09:50:28.032Z,5.90
2022-09-11T09:53:05.524Z,4.53
2022-09-11T09:55:34.638Z,5.43
2022-09-11T09:58:02.543Z,4.57
2022-09-11T10:00:32.577Z,5.28
2022-09-11T10:02:59.194Z,9.98
2022-09-11T10:05:29.970Z,6.57
2022-09-11T10:08:03.132Z,8.60
2022-09-11T10:10:32.964Z,6.13
2022-09-11T10:13:18.910Z,6.00
2022-09-11T10:15:49.186Z,3.80
2022-09-11T10:18:37.879Z,5.95
2022-09-11T10:21:13.714Z,4.88
2022-09-11T10:23:53.433Z,5.63
2022-09-11T10:26:20.899Z,3.85
2022-09-11T10:28:47.984Z,5.85
2022-09-11T10:31:18.694Z,3.22
2022-09-11T10:33:58.099Z,5.57
2022-09-11T10:36:28.050Z,8.50
2022-09-11T10:38:57.333Z,4.57
2022-09-11T10:41:34.745Z,3.95
2022-09-11T10:44:12.077Z,3.53
2022-09-11T10:46:43.228Z,2.95
2022-09-11T10:49:16.193Z,4.22
2022-09-11T10:51:57.278Z,7.53
2022-09-11T10:55:01.417Z,5.03
2022-09-11T10:57:55.249Z,2.78
2022-09-11T11:00:27.552Z,7.13
2022-09-11T11:03:17.745Z,6.32
2022-09-11T11:05:47.858Z,3.78
2022-09-11T11:08:26.369Z,3.70
2022-09-11T11:11:05.188Z,5.15
2022-09-11T11:13:49.936Z,5.53
2022-09-11T11:16:29.366Z,3.55
2022-09-11T11:19:12.297Z,3.28
2022-09-11T11:22:34.396Z,3.03
2022-09-11T11:28:24.147Z,3.80
2022-09-11T11:31:03.317Z,3.78
2022-09-11T11:33:57.558Z,3.08
2022-09-11T11:36:49.981Z,2.90
2022-09-11T11:39:19.600Z,5.78
2022-09-11T11:42:13.145Z,2.97
2022-09-11T11:44:49.481Z,3.22
2022-09-11T11:47:18.614Z,2.92
2022-09-11T11:50:06.941Z,2.90
2022-09-11T11:52:38.029Z,5.60
2022-09-11T11:55:16.900Z,4.13
2022-09-11T11:57:51.797Z,2.85
2022-09-11T12:00:19.075Z,4.38
2022-09-11T12:02:49.423Z,2.78
2022-09-11T12:05:24.180Z,3.50
2022-09-11T12:07:51.281Z,4.75
2022-09-11T12:10:34.442Z,3.95
2022-09-11T12:13:05.913Z,3.25
2022-09-11T12:18:06.887Z,2.95
2022-09-11T12:20:37.829Z,3.35
2022-09-11T12:23:07.485Z,4.82
2022-09-11T12:25:35.412Z,3.30
2022-09-11T12:28:22.466Z,4.65
2022-09-11T12:31:06.110Z,4.20
2022-09-11T12:33:58.934Z,4.72
2022-09-11T12:36:47.786Z,3.80
2022-09-11T12:39:34.849Z,3.85
2022-09-11T12:42:25.390Z,3.65
2022-09-11T12:44:52.214Z,4.95
2022-09-11T12:47:34.797Z,3.65
2022-09-11T12:50:22.737Z,3.70
2022-09-11T12:52:54.920Z,5.43
2022-09-11T12:55:51.753Z,6.38
2022-09-11T12:58:21.037Z,3.85
2022-09-11T13:00:50.310Z,3.78
2022-09-11T13:03:28.065Z,4.40
2022-09-11T13:06:00.015Z,4.28
2022-09-11T13:08:34.473Z,4.63
2022-09-11T13:11:35.056Z,4.38
2022-09-11T13:14:02.550Z,4.25
2022-09-11T13:16:37.088Z,4.32
2022-09-11T13:19:14.406Z,3.45
2022-09-11T13:21:41.947Z,5.35
2022-09-11T13:24:44.679Z,3.50
2022-09-11T13:27:26.465Z,5.95
2022-09-11T13:29:56.371Z,4.00
2022-09-11T13:32:23.702Z,4.18
2022-09-11T13:34:58.656Z,3.95
2022-09-11T13:37:33.643Z,3.80
2022-09-11T13:40:01.862Z,3.03
2022-09-11T13:42:29.230Z,3.65
2022-09-11T13:44:57.758Z,3.92
2022-09-11T13:47:30.997Z,2.95
2022-09-11T13:50:01.465Z,2.33
2022-09-11T13:52:32.017Z,4.33
2022-09-11T13:55:04.377Z,2.77
2022-09-11T13:57:34.735Z,2.97
2022-09-11T14:00:01.825Z,5.35
2022-09-11T14:02:50.983Z,3.65
2022-09-11T14:05:25.992Z,7.10
2022-09-11T14:08:20.510Z,3.25
2022-09-11T14:10:54.754Z,3.40
2022-09-11T14:13:27.719Z,3.15
2022-09-11T14:15:59.047Z,3.72
2022-09-11T14:21:14.739Z,2.40
2022-09-11T14:23:45.642Z,3.53
2022-09-11T14:26:17.073Z,2.97
2022-09-11T14:34:21.916Z,2.70
2022-09-11T14:37:16.645Z,3.67
2022-09-11T14:39:50.137Z,5.55
2022-09-11T14:42:21.091Z,2.75
2022-09-11T14:44:48.304Z,2.33
2022-09-11T14:47:20.745Z,3.33
2022-09-11T14:49:48.229Z,3.45
2022-09-11T14:52:16.894Z,3.17
2022-09-11T14:54:43.732Z,3.45
2022-09-11T14:57:20.337Z,4.38
2022-09-11T14:59:47.394Z,4.07
2022-09-11T15:02:19.744Z,2.70
2022-09-11T15:04:47.219Z,5.05
2022-09-11T15:07:15.684Z,6.40
2022-09-11T15:09:43.078Z,2.65
2022-09-11T15:12:12.185Z,3.40
2022-09-11T15:14:58.065Z,3.80
2022-09-11T15:17:25.709Z,4.07
2022-09-11T15:19:52.720Z,2.50
2022-09-11T15:22:19.725Z,3.65
2022-09-11T15:24:49.698Z,3.60
2022-09-11T15:27:17.121Z,4.05
2022-09-11T15:29:44.239Z,4.40
2022-09-11T15:32:11.391Z,4.97
2022-09-11T15:34:41.984Z,4.40
2022-09-11T15:37:08.639Z,2.40
2022-09-11T15:39:35.328Z,4.85
2022-09-11T15:42:02.055Z,3.25
2022-09-11T15:44:29.187Z,3.08
2022-09-11T15:46:57.257Z,2.75
2022-09-11T15:49:24.632Z,6.05
2022-09-11T15:51:53.703Z,3.40
2022-09-11T15:54:21.086Z,2.00
2022-09-11T15:56:47.837Z,3.55
2022-09-11T15:59:15.252Z,10.90
2022-09-11T16:01:43.180Z,3.08
2022-09-11T16:04:15.309Z,3.67
2022-09-11T16:06:45.561Z,2.83
2022-09-11T16:09:15.747Z,2.85
2022-09-11T16:11:43.893Z,2.95
2022-09-11T16:14:25.593Z,3.45
2022-09-11T16:16:52.704Z,5.97
2022-09-11T16:19:21.514Z,2.35
2022-09-11T16:21:49.101Z,3.95
2022-09-11T16:24:16.048Z,5.28
2022-09-11T16:26:44.070Z,4.47
2022-09-11T16:29:12.412Z,3.47
2022-09-11T16:31:39.342Z,3.13
2022-09-11T16:34:06.998Z,3.33
2022-09-11T16:36:38.729Z,1.77
2022-09-11T16:39:08.875Z,6.07
2022-09-11T16:41:37.025Z,2.58
2022-09-11T16:44:04.845Z,4.20
2022-09-11T16:46:33.241Z,3.03
2022-09-11T16:49:02.066Z,4.13
2022-09-11T16:51:29.631Z,3.92
2022-09-11T16:53:56.413Z,6.18
2022-09-11T16:56:24.342Z,3.90
2022-09-11T16:58:51.393Z,3.03
2022-09-11T17:01:21.019Z,2.53
2022-09-11T17:03:50.561Z,4.90
2022-09-11T17:06:20.057Z,6.25
2022-09-11T17:08:47.867Z,3.33
2022-09-11T17:11:18.848Z,3.45
2022-09-11T17:13:46.576Z,3.65
2022-09-11T17:16:19.814Z,4.50
2022-09-11T17:18:53.486Z,2.53
2022-09-11T17:21:23.559Z,5.68
2022-09-11T17:23:52.080Z,2.83
2022-09-11T17:26:19.069Z,2.65
2022-09-11T17:28:48.016Z,4.65
2022-09-11T17:31:16.642Z,9.77
2022-09-11T17:33:45.433Z,6.22
2022-09-11T17:36:13.266Z,3.10
2022-09-11T17:38:40.119Z,3.83
2022-09-11T17:41:08.673Z,3.78
2022-09-11T17:43:36.591Z,3.38
2022-09-11T17:46:15.059Z,4.57
2022-09-11T17:48:42.477Z,3.45
2022-09-11T17:51:12.087Z,3.85
2022-09-11T17:53:44.448Z,4.28
2022-09-11T17:56:14.386Z,4.32
2022-09-11T17:58:42.564Z,4.10
2022-09-11T18:01:11.673Z,4.57
2022-09-11T18:03:40.344Z,6.20
2022-09-11T18:06:25.332Z,4.00
2022-09-11T18:08:54.001Z,4.25
2022-09-11T18:11:20.693Z,4.47
2022-09-11T18:13:47.451Z,2.92
2022-09-11T18:16:14.149Z,2.80
2022-09-11T18:18:40.781Z,4.75
2022-09-11T18:21:09.269Z,5.15
2022-09-11T18:23:44.393Z,3.45
2022-09-11T18:26:42.062Z,4.28
2022-09-11T18:29:11.916Z,5.70
2022-09-11T18:31:41.429Z,6.10
2022-09-11T18:34:11.698Z,9.00
2022-09-11T18:36:38.598Z,7.75
2022-09-11T18:39:05.484Z,3.85
2022-09-11T18:41:37.067Z,4.30
2022-09-11T18:44:08.617Z,5.03
2022-09-11T18:46:37.438Z,3.58
2022-09-11T18:49:04.969Z,6.47
2022-09-11T18:51:31.866Z,4.70
2022-09-11T18:54:00.098Z,5.05
2022-09-11T18:56:29.291Z,7.50
2022-09-11T18:58:56.331Z,5.18
2022-09-11T19:01:25.946Z,5.82
2022-09-11T19:03:53.460Z,5.53
2022-09-11T19:06:22.541Z,6.47
2022-09-11T19:08:49.480Z,4.15
2022-09-11T19:11:25.875Z,4.05
2022-09-11T19:13:54.405Z,5.43
2022-09-11T19:16:21.891Z,5.38
2022-09-11T19:18:49.303Z,5.30
2022-09-11T19:21:20.699Z,5.00
2022-09-11T19:23:50.080Z,6.15
2022-09-11T19:26:18.605Z,4.63
2022-09-11T19:28:46.360Z,4.25
2022-09-11T19:31:14.557Z,5.72
2022-09-11T19:33:44.308Z,5.80
2022-09-11T19:36:20.001Z,7.72
2022-09-11T19:38:49.571Z,7.35
2022-09-11T19:41:19.072Z,7.68
2022-09-11T19:43:46.821Z,5.43
2022-09-11T19:46:18.235Z,5.72
2022-09-11T19:51:23.437Z,5.15
2022-09-11T19:53:51.826Z,4.60
2022-09-11T19:56:19.588Z,6.03
2022-09-11T19:58:46.339Z,7.05
2022-09-11T20:01:15.515Z,7.22
2022-09-11T20:03:44.294Z,5.93
2022-09-11T20:06:12.812Z,7.10
2022-09-11T20:08:43.297Z,6.70
2022-09-11T20:11:13.789Z,6.10
2022-09-11T20:13:40.687Z,7.43
2022-09-11T20:16:09.733Z,7.55
2022-09-11T20:18:36.900Z,7.50
2022-09-11T20:21:09.360Z,8.02
2022-09-11T20:23:36.662Z,7.80
2022-09-11T20:26:17.324Z,8.30
2022-09-11T20:28:45.276Z,8.23
2022-09-11T20:31:17.382Z,8.38
2022-09-11T20:33:45.284Z,9.65
2022-09-11T20:36:13.167Z,8.55
2022-09-11T20:38:39.822Z,7.65
2022-09-11T20:41:12.701Z,10.30
2022-09-11T20:43:40.162Z,7.10
2022-09-11T20:46:08.400Z,6.47
2022-09-11T20:48:35.248Z,6.90
2022-09-11T20:51:06.966Z,7.00
2022-09-11T20:53:34.289Z,8.68
2022-09-11T20:56:03.168Z,8.77
2022-09-11T20:58:30.238Z,7.32
2022-09-11T21:00:57.239Z,7.97
2022-09-11T21:03:24.706Z,8.88
2022-09-11T21:05:51.742Z,11.52
2022-09-11T21:08:18.593Z,10.25
2022-09-11T21:10:45.329Z,7.20
2022-09-11T21:13:12.037Z,7.18
2022-09-11T21:15:45.777Z,7.88
2022-09-11T21:18:12.808Z,8.63
2022-09-11T21:20:40.032Z,7.45
2022-09-11T21:23:06.989Z,11.73
2022-09-11T21:25:40.069Z,8.20
2022-09-11T21:28:06.729Z,7.68
2022-09-11T21:30:33.389Z,10.00
2022-09-11T21:33:00.078Z,9.85
2022-09-11T21:35:26.708Z,8.35
2022-09-11T21:37:53.383Z,7.07
2022-09-11T21:40:20.010Z,8.57
2022-09-11T21:42:46.641Z,7.43
2022-09-11T21:45:13.261Z,6.60
2022-09-11T21:47:39.877Z,7.57
2022-09-11T21:50:08.009Z,10.52
2022-09-11T21:52:35.060Z,8.65
2022-09-11T21:55:01.748Z,9.32
2022-09-11T21:57:28.891Z,9.75
2022-09-11T21:59:59.309Z,9.70
2022-09-11T22:02:26.837Z,9.35
2022-09-11T22:04:53.473Z,11.80
2022-09-11T22:07:20.656Z,11.75
2022-09-11T22:09:48.343Z,11.10
2022-09-11T22:12:16.228Z,14.25
2022-09-11T22:14:44.811Z,14.68
2022-09-11T22:17:11.907Z,11.98
2022-09-11T22:19:38.584Z,13.93
2022-09-11T22:22:06.678Z,9.60
2022-09-11T22:24:33.400Z,11.07
2022-09-11T22:27:00.137Z,11.98
2022-09-11T22:29:26.767Z,9.52
2022-09-11T22:31:53.424Z,13.40
2022-09-11T22:34:20.089Z,13.30
2022-09-11T22:36:46.864Z,10.45
2022-09-11T22:39:13.603Z,11.48
2022-09-11T22:41:40.189Z,12.07
2022-09-11T22:44:07.431Z,10.88
2022-09-11T22:46:34.102Z,12.52
2022-09-11T22:49:03.283Z,11.60
2022-09-11T22:51:32.690Z,14.23
2022-09-11T22:53:59.446Z,12.68
2022-09-11T22:56:26.398Z,10.88
2022-09-11T22:58:53.653Z,11.40
2022-09-11T23:01:22.665Z,11.98
2022-09-11T23:03:51.588Z,13.70
2022-09-11T23:06:37.527Z,14.05
2022-09-11T23:09:06.356Z,17.23
2022-09-11T23:11:33.372Z,12.68
2022-09-11T23:14:00.008Z,12.60
2022-09-11T23:16:29.286Z,15.60
2022-09-11T23:18:58.681Z,14.63
2022-09-11T23:21:26.624Z,14.25
2022-09-11T23:23:54.946Z,13.32
2022-09-11T23:26:22.333Z,12.35
2022-09-11T23:28:49.400Z,14.85
2022-09-11T23:31:24.686Z,13.45
2022-09-11T23:33:54.245Z,17.65
2022-09-11T23:36:21.644Z,18.05
2022-09-11T23:38:48.982Z,14.90
2022-09-11T23:41:16.601Z,17.10
2022-09-11T23:43:43.502Z,16.60
2022-09-11T23:46:10.839Z,16.85
2022-09-11T23:48:37.681Z,17.05
2022-09-11T23:51:05.333Z,16.48
2022-09-11T23:53:31.957Z,15.98
2022-09-11T23:55:58.741Z,14.75
2022-09-11T23:58:25.692Z,17.02
